sensor_id;sensor_type;location;lat;lon;timestamp;P1;durP1;ratioP1;P2;durP2;ratioP2
40737;SDS011;54759;48.094;-1.628;2022-10-26T00:02:49;0.63;;;0.35;;
40737;SDS011;54759;48.094;-1.628;2022-10-26T00:05:54;0.73;;;0.40;;
40737;SDS011;54759;48.094;-1.628;2022-10-26T00:09:03;0.30;;;0.20;;
40737;SDS011;54759;48.094;-1.628;2022-10-26T00:12:04;0.65;;;0.20;;
40737;SDS011;54759;48.094;-1.628;2022-10-26T00:15:07;0.70;;;0.30;;
40737;SDS011;54759;48.094;-1.628;2022-10-26T00:18:08;0.32;;;0.30;;
40737;SDS011;54759;48.094;-1.628;2022-10-26T00:24:12;0.63;;;0.30;;
40737;SDS011;54759;48.094;-1.628;2022-10-26T00:27:14;0.30;;;0.20;;
40737;SDS011;54759;48.094;-1.628;2022-10-26T00:30:16;0.60;;;0.30;;
40737;SDS011;54759;48.094;-1.628;2022-10-26T00:33:17;0.70;;;0.47;;
40737;SDS011;54759;48.094;-1.628;2022-10-26T00:36:19;0.85;;;0.30;;
40737;SDS011;54759;48.094;-1.628;2022-10-26T00:39:21;0.50;;;0.30;;
40737;SDS011;54759;48.094;-1.628;2022-10-26T00:42:22;0.50;;;0.30;;
40737;SDS011;54759;48.094;-1.628;2022-10-26T00:48:27;0.40;;;0.20;;
40737;SDS011;54759;48.094;-1.628;2022-10-26T00:51:34;0.82;;;0.40;;
40737;SDS011;54759;48.094;-1.628;2022-10-26T00:54:38;0.28;;;0.28;;
40737;SDS011;54759;48.094;-1.628;2022-10-26T00:57:40;0.40;;;0.30;;
40737;SDS011;54759;48.094;-1.628;2022-10-26T01:00:42;0.38;;;0.28;;
40737;SDS011;54759;48.094;-1.628;2022-10-26T01:03:44;0.65;;;0.28;;
40737;SDS011;54759;48.094;-1.628;2022-10-26T01:06:47;0.40;;;0.30;;
40737;SDS011;54759;48.094;-1.628;2022-10-26T01:09:50;0.32;;;0.20;;
40737;SDS011;54759;48.094;-1.628;2022-10-26T01:12:55;0.38;;;0.20;;
40737;SDS011;54759;48.094;-1.628;2022-10-26T01:16:01;0.60;;;0.25;;
40737;SDS011;54759;48.094;-1.628;2022-10-26T01:19:20;0.20;;;0.20;;
40737;SDS011;54759;48.094;-1.628;2022-10-26T01:22:39;0.20;;;0.17;;
40737;SDS011;54759;48.094;-1.628;2022-10-26T01:25:52;0.30;;;0.30;;
40737;SDS011;54759;48.094;-1.628;2022-10-26T01:29:24;0.77;;;0.30;;
40737;SDS011;54759;48.094;-1.628;2022-10-26T01:32:44;0.32;;;0.20;;
40737;SDS011;54759;48.094;-1.628;2022-10-26T01:35:51;0.52;;;0.20;;
40737;SDS011;54759;48.094;-1.628;2022-10-26T01:39:04;0.28;;;0.10;;
40737;SDS011;54759;48.094;-1.628;2022-10-26T01:42:10;0.35;;;0.20;;
40737;SDS011;54759;48.094;-1.628;2022-10-26T01:45:14;0.57;;;0.20;;
40737;SDS011;54759;48.094;-1.628;2022-10-26T01:48:17;0.50;;;0.30;;
40737;SDS011;54759;48.094;-1.628;2022-10-26T01:51:20;0.20;;;0.10;;
40737;SDS011;54759;48.094;-1.628;2022-10-26T01:54:23;0.20;;;0.20;;
40737;SDS011;54759;48.094;-1.628;2022-10-26T01:57:24;0.40;;;0.20;;
40737;SDS011;54759;48.094;-1.628;2022-10-26T02:03:29;0.80;;;0.22;;
40737;SDS011;54759;48.094;-1.628;2022-10-26T02:06:40;0.28;;;0.13;;
40737;SDS011;54759;48.094;-1.628;2022-10-26T02:09:50;0.22;;;0.20;;
40737;SDS011;54759;48.094;-1.628;2022-10-26T02:13:00;0.20;;;0.10;;
40737;SDS011;54759;48.094;-1.628;2022-10-26T02:16:10;0.25;;;0.10;;
40737;SDS011;54759;48.094;-1.628;2022-10-26T02:19:23;0.50;;;0.10;;
40737;SDS011;54759;48.094;-1.628;2022-10-26T02:22:32;0.32;;;0.15;;
40737;SDS011;54759;48.094;-1.628;2022-10-26T02:25:38;0.20;;;0.20;;
40737;SDS011;54759;48.094;-1.628;2022-10-26T02:28:44;0.30;;;0.22;;
40737;SDS011;54759;48.094;-1.628;2022-10-26T02:31:49;0.15;;;0.10;;
40737;SDS011;54759;48.094;-1.628;2022-10-26T02:34:53;0.50;;;0.28;;
40737;SDS011;54759;48.094;-1.628;2022-10-26T02:37:58;0.40;;;0.20;;
40737;SDS011;54759;48.094;-1.628;2022-10-26T02:41:05;0.10;;;0.08;;
40737;SDS011;54759;48.094;-1.628;2022-10-26T02:44:10;0.20;;;0.10;;
40737;SDS011;54759;48.094;-1.628;2022-10-26T02:47:16;0.30;;;0.15;;
40737;SDS011;54759;48.094;-1.628;2022-10-26T02:50:20;0.30;;;0.20;;
40737;SDS011;54759;48.094;-1.628;2022-10-26T02:53:28;0.40;;;0.17;;
40737;SDS011;54759;48.094;-1.628;2022-10-26T02:56:33;0.30;;;0.30;;
40737;SDS011;54759;48.094;-1.628;2022-10-26T02:59:40;0.40;;;0.20;;
40737;SDS011;54759;48.094;-1.628;2022-10-26T03:02:53;0.45;;;0.10;;
40737;SDS011;54759;48.094;-1.628;2022-10-26T03:05:58;0.63;;;0.20;;
40737;SDS011;54759;48.094;-1.628;2022-10-26T03:08:59;0.47;;;0.20;;
40737;SDS011;54759;48.094;-1.628;2022-10-26T03:12:01;0.13;;;0.10;;
40737;SDS011;54759;48.094;-1.628;2022-10-26T03:15:03;0.73;;;0.30;;
40737;SDS011;54759;48.094;-1.628;2022-10-26T03:18:04;0.20;;;0.20;;
40737;SDS011;54759;48.094;-1.628;2022-10-26T03:21:07;1.33;;;0.25;;
40737;SDS011;54759;48.094;-1.628;2022-10-26T03:24:08;0.40;;;0.20;;
40737;SDS011;54759;48.094;-1.628;2022-10-26T03:27:10;0.70;;;0.30;;
40737;SDS011;54759;48.094;-1.628;2022-10-26T03:33:13;0.30;;;0.10;;
40737;SDS011;54759;48.094;-1.628;2022-10-26T03:36:15;0.25;;;0.13;;
40737;SDS011;54759;48.094;-1.628;2022-10-26T03:39:16;0.43;;;0.15;;
40737;SDS011;54759;48.094;-1.628;2022-10-26T03:42:18;0.35;;;0.10;;
40737;SDS011;54759;48.094;-1.628;2022-10-26T03:48:21;0.57;;;0.20;;
40737;SDS011;54759;48.094;-1.628;2022-10-26T03:51:23;0.35;;;0.20;;
40737;SDS011;54759;48.094;-1.628;2022-10-26T03:54:24;0.73;;;0.32;;
40737;SDS011;54759;48.094;-1.628;2022-10-26T04:00:27;0.68;;;0.30;;
40737;SDS011;54759;48.094;-1.628;2022-10-26T04:06:33;0.30;;;0.15;;
40737;SDS011;54759;48.094;-1.628;2022-10-26T04:09:35;0.35;;;0.15;;
40737;SDS011;54759;48.094;-1.628;2022-10-26T04:12:39;0.60;;;0.30;;
40737;SDS011;54759;48.094;-1.628;2022-10-26T04:21:46;0.22;;;0.20;;
40737;SDS011;54759;48.094;-1.628;2022-10-26T04:24:47;0.65;;;0.30;;
40737;SDS011;54759;48.094;-1.628;2022-10-26T04:27:49;0.52;;;0.20;;
40737;SDS011;54759;48.094;-1.628;2022-10-26T04:30:51;0.20;;;0.20;;
40737;SDS011;54759;48.094;-1.628;2022-10-26T04:36:58;0.65;;;0.25;;
40737;SDS011;54759;48.094;-1.628;2022-10-26T04:39:59;0.55;;;0.20;;
40737;SDS011;54759;48.094;-1.628;2022-10-26T04:43:01;0.55;;;0.20;;
40737;SDS011;54759;48.094;-1.628;2022-10-26T04:46:02;0.50;;;0.38;;
40737;SDS011;54759;48.094;-1.628;2022-10-26T04:49:04;0.22;;;0.20;;
40737;SDS011;54759;48.094;-1.628;2022-10-26T04:55:07;0.20;;;0.20;;
40737;SDS011;54759;48.094;-1.628;2022-10-26T04:58:09;0.40;;;0.17;;
40737;SDS011;54759;48.094;-1.628;2022-10-26T05:04:15;0.50;;;0.28;;
40737;SDS011;54759;48.094;-1.628;2022-10-26T05:07:17;0.52;;;0.20;;
40737;SDS011;54759;48.094;-1.628;2022-10-26T05:10:19;0.52;;;0.20;;
40737;SDS011;54759;48.094;-1.628;2022-10-26T05:13:20;0.55;;;0.17;;
40737;SDS011;54759;48.094;-1.628;2022-10-26T05:16:23;0.47;;;0.22;;
40737;SDS011;54759;48.094;-1.628;2022-10-26T05:22:26;0.30;;;0.10;;
40737;SDS011;54759;48.094;-1.628;2022-10-26T05:25:28;0.40;;;0.20;;
40737;SDS011;54759;48.094;-1.628;2022-10-26T05:28:31;0.43;;;0.25;;
40737;SDS011;54759;48.094;-1.628;2022-10-26T05:31:32;0.85;;;0.28;;
40737;SDS011;54759;48.094;-1.628;2022-10-26T05:37:42;0.80;;;0.22;;
40737;SDS011;54759;48.094;-1.628;2022-10-26T05:40:47;0.90;;;0.32;;
40737;SDS011;54759;48.094;-1.628;2022-10-26T05:43:48;1.80;;;0.50;;
40737;SDS011;54759;48.094;-1.628;2022-10-26T05:49:51;1.65;;;0.82;;
40737;SDS011;54759;48.094;-1.628;2022-10-26T05:55:55;1.13;;;0.40;;
40737;SDS011;54759;48.094;-1.628;2022-10-26T05:58:57;0.90;;;0.40;;
40737;SDS011;54759;48.094;-1.628;2022-10-26T06:02:02;1.67;;;0.60;;
40737;SDS011;54759;48.094;-1.628;2022-10-26T06:05:13;1.05;;;0.30;;
40737;SDS011;54759;48.094;-1.628;2022-10-26T06:08:22;0.60;;;0.30;;
40737;SDS011;54759;48.094;-1.628;2022-10-26T06:11:25;0.35;;;0.20;;
40737;SDS011;54759;48.094;-1.628;2022-10-26T06:14:27;0.88;;;0.30;;
40737;SDS011;54759;48.094;-1.628;2022-10-26T06:17:33;1.20;;;0.30;;
40737;SDS011;54759;48.094;-1.628;2022-10-26T06:20:45;1.48;;;0.50;;
40737;SDS011;54759;48.094;-1.628;2022-10-26T06:24:01;0.98;;;0.30;;
40737;SDS011;54759;48.094;-1.628;2022-10-26T06:27:11;1.95;;;0.60;;
40737;SDS011;54759;48.094;-1.628;2022-10-26T06:30:23;1.20;;;0.50;;
40737;SDS011;54759;48.094;-1.628;2022-10-26T06:33:26;1.40;;;0.30;;
40737;SDS011;54759;48.094;-1.628;2022-10-26T06:36:31;1.33;;;0.40;;
40737;SDS011;54759;48.094;-1.628;2022-10-26T06:39:35;2.40;;;0.68;;
40737;SDS011;54759;48.094;-1.628;2022-10-26T06:42:39;1.25;;;0.38;;
40737;SDS011;54759;48.094;-1.628;2022-10-26T06:45:42;2.45;;;0.40;;
40737;SDS011;54759;48.094;-1.628;2022-10-26T06:48:50;2.67;;;0.38;;
40737;SDS011;54759;48.094;-1.628;2022-10-26T06:51:58;0.98;;;0.47;;
40737;SDS011;54759;48.094;-1.628;2022-10-26T06:55:03;0.88;;;0.30;;
40737;SDS011;54759;48.094;-1.628;2022-10-26T06:58:07;0.43;;;0.20;;
40737;SDS011;54759;48.094;-1.628;2022-10-26T07:01:12;0.65;;;0.28;;
40737;SDS011;54759;48.094;-1.628;2022-10-26T07:04:14;0.43;;;0.20;;
40737;SDS011;54759;48.094;-1.628;2022-10-26T07:07:16;7.88;;;0.50;;
40737;SDS011;54759;48.094;-1.628;2022-10-26T07:10:20;1.58;;;0.30;;
40737;SDS011;54759;48.094;-1.628;2022-10-26T07:13:22;0.85;;;0.25;;
40737;SDS011;54759;48.094;-1.628;2022-10-26T07:16:24;1.77;;;0.40;;
40737;SDS011;54759;48.094;-1.628;2022-10-26T07:19:25;0.93;;;0.38;;
40737;SDS011;54759;48.094;-1.628;2022-10-26T07:22:27;1.75;;;0.32;;
40737;SDS011;54759;48.094;-1.628;2022-10-26T07:28:30;1.45;;;0.40;;
40737;SDS011;54759;48.094;-1.628;2022-10-26T07:31:32;2.38;;;0.22;;
40737;SDS011;54759;48.094;-1.628;2022-10-26T07:37:35;2.90;;;0.28;;
40737;SDS011;54759;48.094;-1.628;2022-10-26T07:40:37;2.45;;;0.30;;
40737;SDS011;54759;48.094;-1.628;2022-10-26T07:43:39;0.80;;;0.25;;
40737;SDS011;54759;48.094;-1.628;2022-10-26T07:46:41;1.70;;;0.50;;
40737;SDS011;54759;48.094;-1.628;2022-10-26T07:49:42;3.78;;;0.70;;
40737;SDS011;54759;48.094;-1.628;2022-10-26T07:55:51;2.20;;;0.38;;
40737;SDS011;54759;48.094;-1.628;2022-10-26T07:58:54;0.20;;;0.20;;
40737;SDS011;54759;48.094;-1.628;2022-10-26T08:01:57;1.30;;;0.40;;
40737;SDS011;54759;48.094;-1.628;2022-10-26T08:04:58;2.05;;;0.38;;
40737;SDS011;54759;48.094;-1.628;2022-10-26T08:08:00;0.70;;;0.20;;
40737;SDS011;54759;48.094;-1.628;2022-10-26T08:11:02;2.10;;;0.38;;
40737;SDS011;54759;48.094;-1.628;2022-10-26T08:14:05;0.77;;;0.30;;
40737;SDS011;54759;48.094;-1.628;2022-10-26T08:17:07;0.70;;;0.30;;
40737;SDS011;54759;48.094;-1.628;2022-10-26T08:20:09;1.23;;;0.40;;
40737;SDS011;54759;48.094;-1.628;2022-10-26T08:23:12;2.08;;;0.50;;
40737;SDS011;54759;48.094;-1.628;2022-10-26T08:26:15;1.38;;;0.30;;
40737;SDS011;54759;48.094;-1.628;2022-10-26T08:29:18;1.35;;;0.40;;
40737;SDS011;54759;48.094;-1.628;2022-10-26T08:32:20;0.95;;;0.30;;
40737;SDS011;54759;48.094;-1.628;2022-10-26T08:35:21;0.95;;;0.32;;
40737;SDS011;54759;48.094;-1.628;2022-10-26T08:38:23;0.20;;;0.17;;
40737;SDS011;54759;48.094;-1.628;2022-10-26T08:41:29;0.50;;;0.20;;
40737;SDS011;54759;48.094;-1.628;2022-10-26T08:44:35;2.92;;;0.47;;
40737;SDS011;54759;48.094;-1.628;2022-10-26T08:47:43;1.23;;;0.40;;
40737;SDS011;54759;48.094;-1.628;2022-10-26T08:50:51;1.85;;;0.30;;
40737;SDS011;54759;48.094;-1.628;2022-10-26T08:53:55;1.33;;;0.80;;
40737;SDS011;54759;48.094;-1.628;2022-10-26T08:57:01;2.80;;;0.63;;
40737;SDS011;54759;48.094;-1.628;2022-10-26T09:00:11;1.80;;;0.68;;
40737;SDS011;54759;48.094;-1.628;2022-10-26T09:03:16;3.33;;;0.77;;
40737;SDS011;54759;48.094;-1.628;2022-10-26T09:06:23;1.65;;;0.75;;
40737;SDS011;54759;48.094;-1.628;2022-10-26T09:09:35;4.63;;;0.90;;
40737;SDS011;54759;48.094;-1.628;2022-10-26T09:12:46;1.42;;;0.68;;
40737;SDS011;54759;48.094;-1.628;2022-10-26T09:15:56;2.13;;;0.55;;
40737;SDS011;54759;48.094;-1.628;2022-10-26T09:19:11;1.45;;;0.40;;
40737;SDS011;54759;48.094;-1.628;2022-10-26T09:22:25;1.53;;;0.67;;
40737;SDS011;54759;48.094;-1.628;2022-10-26T09:25:36;1.55;;;0.28;;
40737;SDS011;54759;48.094;-1.628;2022-10-26T09:28:40;1.17;;;0.50;;
40737;SDS011;54759;48.094;-1.628;2022-10-26T09:31:46;2.45;;;0.70;;
40737;SDS011;54759;48.094;-1.628;2022-10-26T09:34:51;3.75;;;0.60;;
40737;SDS011;54759;48.094;-1.628;2022-10-26T09:37:57;0.82;;;0.43;;
40737;SDS011;54759;48.094;-1.628;2022-10-26T09:41:04;0.80;;;0.40;;
40737;SDS011;54759;48.094;-1.628;2022-10-26T09:44:20;1.35;;;0.52;;
40737;SDS011;54759;48.094;-1.628;2022-10-26T09:47:29;0.75;;;0.40;;
40737;SDS011;54759;48.094;-1.628;2022-10-26T09:50:36;1.58;;;0.30;;
40737;SDS011;54759;48.094;-1.628;2022-10-26T09:53:40;0.77;;;0.20;;
40737;SDS011;54759;48.094;-1.628;2022-10-26T09:56:42;0.55;;;0.20;;
40737;SDS011;54759;48.094;-1.628;2022-10-26T09:59:48;0.77;;;0.35;;
40737;SDS011;54759;48.094;-1.628;2022-10-26T10:02:52;0.98;;;0.20;;
40737;SDS011;54759;48.094;-1.628;2022-10-26T10:06:13;2.50;;;0.52;;
40737;SDS011;54759;48.094;-1.628;2022-10-26T10:09:16;1.17;;;0.40;;
40737;SDS011;54759;48.094;-1.628;2022-10-26T10:12:21;0.85;;;0.20;;
40737;SDS011;54759;48.094;-1.628;2022-10-26T10:15:25;0.98;;;0.40;;
40737;SDS011;54759;48.094;-1.628;2022-10-26T10:18:27;0.47;;;0.28;;
40737;SDS011;54759;48.094;-1.628;2022-10-26T10:21:32;1.00;;;0.30;;
40737;SDS011;54759;48.094;-1.628;2022-10-26T10:24:37;1.67;;;0.65;;
40737;SDS011;54759;48.094;-1.628;2022-10-26T10:27:41;1.23;;;0.50;;
40737;SDS011;54759;48.094;-1.628;2022-10-26T10:30:54;1.30;;;0.60;;
40737;SDS011;54759;48.094;-1.628;2022-10-26T10:33:59;1.05;;;0.43;;
40737;SDS011;54759;48.094;-1.628;2022-10-26T10:37:01;1.17;;;0.50;;
40737;SDS011;54759;48.094;-1.628;2022-10-26T10:40:06;1.98;;;0.50;;
40737;SDS011;54759;48.094;-1.628;2022-10-26T10:43:19;0.77;;;0.43;;
40737;SDS011;54759;48.094;-1.628;2022-10-26T10:46:23;1.23;;;0.60;;
40737;SDS011;54759;48.094;-1.628;2022-10-26T10:49:26;1.25;;;0.50;;
40737;SDS011;54759;48.094;-1.628;2022-10-26T10:52:30;2.63;;;0.60;;
40737;SDS011;54759;48.094;-1.628;2022-10-26T10:55:33;0.85;;;0.45;;
40737;SDS011;54759;48.094;-1.628;2022-10-26T10:58:36;0.82;;;0.35;;
40737;SDS011;54759;48.094;-1.628;2022-10-26T11:01:47;0.63;;;0.30;;
40737;SDS011;54759;48.094;-1.628;2022-10-26T11:05:00;1.33;;;0.70;;
40737;SDS011;54759;48.094;-1.628;2022-10-26T11:08:18;3.60;;;0.70;;
40737;SDS011;54759;48.094;-1.628;2022-10-26T11:11:26;0.73;;;0.30;;
40737;SDS011;54759;48.094;-1.628;2022-10-26T11:14:34;1.00;;;0.30;;
40737;SDS011;54759;48.094;-1.628;2022-10-26T11:17:42;1.60;;;0.40;;
40737;SDS011;54759;48.094;-1.628;2022-10-26T11:20:52;1.20;;;0.40;;
40737;SDS011;54759;48.094;-1.628;2022-10-26T11:24:05;1.25;;;0.60;;
40737;SDS011;54759;48.094;-1.628;2022-10-26T11:27:15;1.10;;;0.63;;
40737;SDS011;54759;48.094;-1.628;2022-10-26T11:30:19;1.50;;;0.52;;
40737;SDS011;54759;48.094;-1.628;2022-10-26T11:33:24;1.58;;;0.60;;
40737;SDS011;54759;48.094;-1.628;2022-10-26T11:36:30;1.60;;;0.47;;
40737;SDS011;54759;48.094;-1.628;2022-10-26T11:39:36;2.60;;;0.80;;
40737;SDS011;54759;48.094;-1.628;2022-10-26T11:42:43;2.92;;;1.13;;
40737;SDS011;54759;48.094;-1.628;2022-10-26T11:45:57;1.13;;;0.57;;
40737;SDS011;54759;48.094;-1.628;2022-10-26T11:49:09;2.95;;;0.45;;
40737;SDS011;54759;48.094;-1.628;2022-10-26T11:52:16;0.83;;;0.30;;
40737;SDS011;54759;48.094;-1.628;2022-10-26T11:55:24;1.25;;;0.30;;
40737;SDS011;54759;48.094;-1.628;2022-10-26T11:58:26;1.48;;;0.30;;
40737;SDS011;54759;48.094;-1.628;2022-10-26T12:01:28;0.43;;;0.30;;
40737;SDS011;54759;48.094;-1.628;2022-10-26T12:04:31;0.90;;;0.40;;
40737;SDS011;54759;48.094;-1.628;2022-10-26T12:07:38;0.77;;;0.20;;
40737;SDS011;54759;48.094;-1.628;2022-10-26T12:10:55;1.60;;;0.30;;
40737;SDS011;54759;48.094;-1.628;2022-10-26T12:14:04;0.43;;;0.25;;
40737;SDS011;54759;48.094;-1.628;2022-10-26T12:17:18;0.40;;;0.20;;
40737;SDS011;54759;48.094;-1.628;2022-10-26T12:20:38;0.70;;;0.30;;
40737;SDS011;54759;48.094;-1.628;2022-10-26T12:23:54;0.73;;;0.35;;
40737;SDS011;54759;48.094;-1.628;2022-10-26T12:26:57;0.82;;;0.30;;
40737;SDS011;54759;48.094;-1.628;2022-10-26T12:30:12;0.80;;;0.43;;
40737;SDS011;54759;48.094;-1.628;2022-10-26T12:33:29;0.70;;;0.55;;
40737;SDS011;54759;48.094;-1.628;2022-10-26T12:39:48;0.98;;;0.65;;
40737;SDS011;54759;48.094;-1.628;2022-10-26T12:42:49;0.68;;;0.40;;
40737;SDS011;54759;48.094;-1.628;2022-10-26T12:52:47;1.52;;;0.35;;
40737;SDS011;54759;48.094;-1.628;2022-10-26T12:55:57;0.47;;;0.40;;
40737;SDS011;54759;48.094;-1.628;2022-10-26T12:59:15;1.58;;;0.35;;
40737;SDS011;54759;48.094;-1.628;2022-10-26T13:02:29;1.55;;;0.35;;
40737;SDS011;54759;48.094;-1.628;2022-10-26T13:09:13;0.65;;;0.20;;
40737;SDS011;54759;48.094;-1.628;2022-10-26T13:12:21;0.55;;;0.30;;
40737;SDS011;54759;48.094;-1.628;2022-10-26T13:15:25;0.55;;;0.20;;
40737;SDS011;54759;48.094;-1.628;2022-10-26T13:18:28;2.03;;;0.50;;
40737;SDS011;54759;48.094;-1.628;2022-10-26T13:21:30;0.85;;;0.40;;
40737;SDS011;54759;48.094;-1.628;2022-10-26T13:24:47;1.83;;;0.40;;
40737;SDS011;54759;48.094;-1.628;2022-10-26T13:28:00;1.05;;;0.40;;
40737;SDS011;54759;48.094;-1.628;2022-10-26T13:31:07;0.60;;;0.30;;
40737;SDS011;54759;48.094;-1.628;2022-10-26T13:34:13;1.05;;;0.40;;
40737;SDS011;54759;48.094;-1.628;2022-10-26T13:37:18;1.65;;;0.50;;
40737;SDS011;54759;48.094;-1.628;2022-10-26T13:40:25;2.17;;;0.50;;
40737;SDS011;54759;48.094;-1.628;2022-10-26T13:43:28;2.10;;;0.50;;
40737;SDS011;54759;48.094;-1.628;2022-10-26T13:46:33;1.85;;;0.68;;
40737;SDS011;54759;48.094;-1.628;2022-10-26T13:49:39;2.83;;;0.90;;
40737;SDS011;54759;48.094;-1.628;2022-10-26T13:52:43;3.35;;;0.93;;
40737;SDS011;54759;48.094;-1.628;2022-10-26T13:55:51;3.42;;;0.68;;
40737;SDS011;54759;48.094;-1.628;2022-10-26T13:58:59;3.40;;;0.60;;
40737;SDS011;54759;48.094;-1.628;2022-10-26T14:02:05;2.90;;;0.50;;
40737;SDS011;54759;48.094;-1.628;2022-10-26T14:05:08;2.30;;;0.60;;
40737;SDS011;54759;48.094;-1.628;2022-10-26T14:08:13;1.65;;;0.63;;
40737;SDS011;54759;48.094;-1.628;2022-10-26T14:11:19;1.40;;;0.52;;
40737;SDS011;54759;48.094;-1.628;2022-10-26T14:14:24;2.17;;;0.68;;
40737;SDS011;54759;48.094;-1.628;2022-10-26T14:17:29;1.05;;;0.50;;
40737;SDS011;54759;48.094;-1.628;2022-10-26T14:20:30;1.13;;;0.55;;
40737;SDS011;54759;48.094;-1.628;2022-10-26T14:23:33;3.05;;;0.80;;
40737;SDS011;54759;48.094;-1.628;2022-10-26T14:26:38;2.75;;;0.68;;
40737;SDS011;54759;48.094;-1.628;2022-10-26T14:29:41;1.77;;;0.70;;
40737;SDS011;54759;48.094;-1.628;2022-10-26T14:32:58;2.10;;;0.40;;
40737;SDS011;54759;48.094;-1.628;2022-10-26T14:36:00;2.97;;;0.45;;
40737;SDS011;54759;48.094;-1.628;2022-10-26T14:39:02;2.80;;;0.60;;
40737;SDS011;54759;48.094;-1.628;2022-10-26T14:42:09;2.75;;;0.60;;
40737;SDS011;54759;48.094;-1.628;2022-10-26T14:45:21;2.08;;;0.70;;
40737;SDS011;54759;48.094;-1.628;2022-10-26T14:48:53;2.25;;;0.52;;
40737;SDS011;54759;48.094;-1.628;2022-10-26T14:51:56;2.28;;;0.70;;
40737;SDS011;54759;48.094;-1.628;2022-10-26T14:55:01;1.25;;;0.52;;
40737;SDS011;54759;48.094;-1.628;2022-10-26T14:58:20;3.13;;;0.80;;
40737;SDS011;54759;48.094;-1.628;2022-10-26T15:01:29;1.88;;;0.70;;
40737;SDS011;54759;48.094;-1.628;2022-10-26T15:04:37;2.67;;;0.80;;
40737;SDS011;54759;48.094;-1.628;2022-10-26T15:07:40;1.60;;;0.40;;
40737;SDS011;54759;48.094;-1.628;2022-10-26T15:10:45;1.90;;;0.40;;
40737;SDS011;54759;48.094;-1.628;2022-10-26T15:13:48;0.57;;;0.30;;
40737;SDS011;54759;48.094;-1.628;2022-10-26T15:16:50;1.80;;;0.40;;
40737;SDS011;54759;48.094;-1.628;2022-10-26T15:19:55;0.65;;;0.38;;
40737;SDS011;54759;48.094;-1.628;2022-10-26T15:22:58;0.98;;;0.28;;
40737;SDS011;54759;48.094;-1.628;2022-10-26T15:26:01;0.63;;;0.30;;
40737;SDS011;54759;48.094;-1.628;2022-10-26T15:29:04;0.68;;;0.30;;
40737;SDS011;54759;48.094;-1.628;2022-10-26T15:32:33;0.57;;;0.28;;
40737;SDS011;54759;48.094;-1.628;2022-10-26T15:35:35;2.05;;;0.20;;
40737;SDS011;54759;48.094;-1.628;2022-10-26T15:38:36;0.60;;;0.40;;
40737;SDS011;54759;48.094;-1.628;2022-10-26T15:41:44;0.75;;;0.35;;
40737;SDS011;54759;48.094;-1.628;2022-10-26T15:44:47;0.40;;;0.20;;
40737;SDS011;54759;48.094;-1.628;2022-10-26T15:47:52;0.47;;;0.40;;
40737;SDS011;54759;48.094;-1.628;2022-10-26T15:50:57;0.35;;;0.15;;
40737;SDS011;54759;48.094;-1.628;2022-10-26T15:54:00;0.30;;;0.20;;
40737;SDS011;54759;48.094;-1.628;2022-10-26T15:57:03;2.35;;;0.40;;
40737;SDS011;54759;48.094;-1.628;2022-10-26T16:00:09;0.93;;;0.40;;
40737;SDS011;54759;48.094;-1.628;2022-10-26T16:03:16;0.50;;;0.28;;
40737;SDS011;54759;48.094;-1.628;2022-10-26T16:06:21;0.32;;;0.30;;
40737;SDS011;54759;48.094;-1.628;2022-10-26T16:09:26;1.67;;;1.00;;
40737;SDS011;54759;48.094;-1.628;2022-10-26T16:12:28;1.15;;;0.90;;
40737;SDS011;54759;48.094;-1.628;2022-10-26T16:15:30;1.40;;;0.80;;
40737;SDS011;54759;48.094;-1.628;2022-10-26T16:18:31;0.90;;;0.50;;
40737;SDS011;54759;48.094;-1.628;2022-10-26T16:21:33;1.13;;;0.60;;
40737;SDS011;54759;48.094;-1.628;2022-10-26T16:24:34;0.50;;;0.50;;
40737;SDS011;54759;48.094;-1.628;2022-10-26T16:27:36;0.88;;;0.52;;
40737;SDS011;54759;48.094;-1.628;2022-10-26T16:30:38;0.68;;;0.40;;
40737;SDS011;54759;48.094;-1.628;2022-10-26T16:33:41;0.75;;;0.38;;
40737;SDS011;54759;48.094;-1.628;2022-10-26T16:36:43;0.95;;;0.50;;
40737;SDS011;54759;48.094;-1.628;2022-10-26T16:39:44;0.63;;;0.35;;
40737;SDS011;54759;48.094;-1.628;2022-10-26T16:42:46;0.68;;;0.45;;
40737;SDS011;54759;48.094;-1.628;2022-10-26T16:45:48;0.75;;;0.32;;
40737;SDS011;54759;48.094;-1.628;2022-10-26T16:48:50;0.50;;;0.50;;
40737;SDS011;54759;48.094;-1.628;2022-10-26T16:51:52;1.27;;;0.75;;
40737;SDS011;54759;48.094;-1.628;2022-10-26T16:54:54;0.50;;;0.43;;
40737;SDS011;54759;48.094;-1.628;2022-10-26T16:57:55;0.50;;;0.40;;
40737;SDS011;54759;48.094;-1.628;2022-10-26T17:00:58;0.45;;;0.35;;
40737;SDS011;54759;48.094;-1.628;2022-10-26T17:03:59;0.70;;;0.47;;
40737;SDS011;54759;48.094;-1.628;2022-10-26T17:07:06;0.90;;;0.40;;
40737;SDS011;54759;48.094;-1.628;2022-10-26T17:10:08;2.08;;;1.25;;
40737;SDS011;54759;48.094;-1.628;2022-10-26T17:13:10;1.98;;;1.20;;
40737;SDS011;54759;48.094;-1.628;2022-10-26T17:16:14;1.10;;;0.90;;
40737;SDS011;54759;48.094;-1.628;2022-10-26T17:19:18;1.00;;;0.70;;
40737;SDS011;54759;48.094;-1.628;2022-10-26T17:22:20;1.17;;;0.73;;
40737;SDS011;54759;48.094;-1.628;2022-10-26T17:25:22;0.82;;;0.50;;
40737;SDS011;54759;48.094;-1.628;2022-10-26T17:28:23;1.15;;;0.30;;
40737;SDS011;54759;48.094;-1.628;2022-10-26T17:31:26;0.60;;;0.47;;
40737;SDS011;54759;48.094;-1.628;2022-10-26T17:34:27;0.50;;;0.40;;
40737;SDS011;54759;48.094;-1.628;2022-10-26T17:37:32;0.75;;;0.43;;
40737;SDS011;54759;48.094;-1.628;2022-10-26T17:40:34;0.93;;;0.50;;
40737;SDS011;54759;48.094;-1.628;2022-10-26T17:43:36;0.77;;;0.40;;
40737;SDS011;54759;48.094;-1.628;2022-10-26T17:46:40;1.02;;;0.50;;
40737;SDS011;54759;48.094;-1.628;2022-10-26T17:49:41;0.90;;;0.38;;
40737;SDS011;54759;48.094;-1.628;2022-10-26T17:52:43;0.47;;;0.28;;
40737;SDS011;54759;48.094;-1.628;2022-10-26T17:55:44;0.60;;;0.40;;
40737;SDS011;54759;48.094;-1.628;2022-10-26T17:58:49;0.50;;;0.38;;
40737;SDS011;54759;48.094;-1.628;2022-10-26T18:01:52;0.38;;;0.20;;
40737;SDS011;54759;48.094;-1.628;2022-10-26T18:04:54;0.22;;;0.22;;
40737;SDS011;54759;48.094;-1.628;2022-10-26T18:07:55;0.57;;;0.40;;
40737;SDS011;54759;48.094;-1.628;2022-10-26T18:10:57;0.50;;;0.40;;
40737;SDS011;54759;48.094;-1.628;2022-10-26T18:13:59;0.43;;;0.30;;
40737;SDS011;54759;48.094;-1.628;2022-10-26T18:17:01;0.88;;;0.40;;
40737;SDS011;54759;48.094;-1.628;2022-10-26T18:20:02;0.22;;;0.20;;
40737;SDS011;54759;48.094;-1.628;2022-10-26T18:23:04;0.63;;;0.30;;
40737;SDS011;54759;48.094;-1.628;2022-10-26T18:26:07;0.45;;;0.30;;
40737;SDS011;54759;48.094;-1.628;2022-10-26T18:29:14;0.60;;;0.30;;
40737;SDS011;54759;48.094;-1.628;2022-10-26T18:32:16;0.52;;;0.30;;
40737;SDS011;54759;48.094;-1.628;2022-10-26T18:35:18;0.50;;;0.30;;
40737;SDS011;54759;48.094;-1.628;2022-10-26T18:38:20;0.63;;;0.35;;
40737;SDS011;54759;48.094;-1.628;2022-10-26T18:41:22;0.50;;;0.30;;
40737;SDS011;54759;48.094;-1.628;2022-10-26T18:44:24;0.30;;;0.30;;
40737;SDS011;54759;48.094;-1.628;2022-10-26T18:47:27;0.60;;;0.30;;
40737;SDS011;54759;48.094;-1.628;2022-10-26T18:50:29;0.45;;;0.38;;
40737;SDS011;54759;48.094;-1.628;2022-10-26T18:53:31;0.75;;;0.30;;
40737;SDS011;54759;48.094;-1.628;2022-10-26T18:56:33;0.47;;;0.30;;
40737;SDS011;54759;48.094;-1.628;2022-10-26T18:59:35;0.85;;;0.40;;
40737;SDS011;54759;48.094;-1.628;2022-10-26T19:02:37;0.52;;;0.30;;
40737;SDS011;54759;48.094;-1.628;2022-10-26T19:05:39;1.23;;;0.60;;
40737;SDS011;54759;48.094;-1.628;2022-10-26T19:08:41;0.50;;;0.20;;
40737;SDS011;54759;48.094;-1.628;2022-10-26T19:11:43;0.65;;;0.30;;
40737;SDS011;54759;48.094;-1.628;2022-10-26T19:14:45;0.63;;;0.38;;
40737;SDS011;54759;48.094;-1.628;2022-10-26T19:17:47;0.95;;;0.30;;
40737;SDS011;54759;48.094;-1.628;2022-10-26T19:20:50;1.08;;;0.45;;
40737;SDS011;54759;48.094;-1.628;2022-10-26T19:23:58;0.82;;;0.40;;
40737;SDS011;54759;48.094;-1.628;2022-10-26T19:27:01;0.52;;;0.28;;
40737;SDS011;54759;48.094;-1.628;2022-10-26T19:30:03;0.90;;;0.47;;